sensor_id;sensor_type;location;lat;lon;timestamp;P1;durP1;ratioP1;P2;durP2;ratioP2
20629;SDS011;17386;43.846;25.950;2022-09-24T00:01:36;4.30;;;1.70;;
20629;SDS011;17386;43.846;25.950;2022-09-24T00:04:04;3.33;;;1.95;;
20629;SDS011;17386;43.846;25.950;2022-09-24T00:06:37;5.70;;;2.10;;
20629;SDS011;17386;43.846;25.950;2022-09-24T00:09:07;3.50;;;1.70;;
20629;SDS011;17386;43.846;25.950;2022-09-24T00:11:33;4.25;;;1.83;;
20629;SDS011;17386;43.846;25.950;2022-09-24T00:13:59;4.70;;;1.95;;
20629;SDS011;17386;43.846;25.950;2022-09-24T00:16:26;2.90;;;1.70;;
20629;SDS011;17386;43.846;25.950;2022-09-24T00:18:54;3.50;;;1.90;;
20629;SDS011;17386;43.846;25.950;2022-09-24T00:21:21;4.03;;;2.03;;
20629;SDS011;17386;43.846;25.950;2022-09-24T00:24:01;3.95;;;2.00;;
20629;SDS011;17386;43.846;25.950;2022-09-24T00:26:33;3.15;;;1.88;;
20629;SDS011;17386;43.846;25.950;2022-09-24T00:29:18;4.22;;;2.03;;
20629;SDS011;17386;43.846;25.950;2022-09-24T00:31:46;4.43;;;2.40;;
20629;SDS011;17386;43.846;25.950;2022-09-24T00:34:12;3.88;;;2.10;;
20629;SDS011;17386;43.846;25.950;2022-09-24T00:36:38;4.75;;;2.30;;
20629;SDS011;17386;43.846;25.950;2022-09-24T00:39:04;3.08;;;1.80;;
20629;SDS011;17386;43.846;25.950;2022-09-24T00:41:31;3.45;;;1.90;;
20629;SDS011;17386;43.846;25.950;2022-09-24T00:43:58;5.38;;;2.13;;
20629;SDS011;17386;43.846;25.950;2022-09-24T00:46:36;4.10;;;2.13;;
20629;SDS011;17386;43.846;25.950;2022-09-24T00:51:38;3.90;;;1.70;;
20629;SDS011;17386;43.846;25.950;2022-09-24T00:54:06;3.90;;;2.35;;
20629;SDS011;17386;43.846;25.950;2022-09-24T00:56:36;5.20;;;1.98;;
20629;SDS011;17386;43.846;25.950;2022-09-24T00:59:05;3.85;;;1.92;;
20629;SDS011;17386;43.846;25.950;2022-09-24T01:01:35;3.65;;;1.92;;
20629;SDS011;17386;43.846;25.950;2022-09-24T01:04:01;3.83;;;2.00;;
20629;SDS011;17386;43.846;25.950;2022-09-24T01:08:54;6.57;;;2.40;;
20629;SDS011;17386;43.846;25.950;2022-09-24T01:30:37;4.38;;;2.35;;
20629;SDS011;17386;43.846;25.950;2022-09-24T01:33:06;5.32;;;2.10;;
20629;SDS011;17386;43.846;25.950;2022-09-24T01:35:38;5.05;;;2.20;;
20629;SDS011;17386;43.846;25.950;2022-09-24T01:41:05;5.53;;;2.60;;
20629;SDS011;17386;43.846;25.950;2022-09-24T01:43:33;3.67;;;2.15;;
20629;SDS011;17386;43.846;25.950;2022-09-24T01:45:59;6.85;;;2.40;;
20629;SDS011;17386;43.846;25.950;2022-09-24T01:48:28;4.80;;;2.50;;
20629;SDS011;17386;43.846;25.950;2022-09-24T01:53:49;5.32;;;3.17;;
20629;SDS011;17386;43.846;25.950;2022-09-24T01:56:38;4.30;;;2.35;;
20629;SDS011;17386;43.846;25.950;2022-09-24T02:01:39;4.57;;;2.22;;
20629;SDS011;17386;43.846;25.950;2022-09-24T02:04:14;5.78;;;2.42;;
20629;SDS011;17386;43.846;25.950;2022-09-24T02:06:55;4.25;;;2.50;;
20629;SDS011;17386;43.846;25.950;2022-09-24T02:09:27;5.05;;;2.60;;
20629;SDS011;17386;43.846;25.950;2022-09-24T02:11:58;4.63;;;2.45;;
20629;SDS011;17386;43.846;25.950;2022-09-24T02:14:29;5.65;;;2.58;;
20629;SDS011;17386;43.846;25.950;2022-09-24T02:16:57;5.03;;;2.58;;
20629;SDS011;17386;43.846;25.950;2022-09-24T02:19:25;5.70;;;2.70;;
20629;SDS011;17386;43.846;25.950;2022-09-24T02:21:54;5.60;;;2.67;;
20629;SDS011;17386;43.846;25.950;2022-09-24T02:24:33;5.43;;;3.00;;
20629;SDS011;17386;43.846;25.950;2022-09-24T02:27:00;5.07;;;2.50;;
20629;SDS011;17386;43.846;25.950;2022-09-24T02:29:25;5.10;;;2.42;;
20629;SDS011;17386;43.846;25.950;2022-09-24T02:31:51;6.75;;;3.50;;
20629;SDS011;17386;43.846;25.950;2022-09-24T02:34:21;6.22;;;2.63;;
20629;SDS011;17386;43.846;25.950;2022-09-24T02:36:57;5.28;;;2.42;;
20629;SDS011;17386;43.846;25.950;2022-09-24T02:39:27;5.30;;;2.50;;
20629;SDS011;17386;43.846;25.950;2022-09-24T02:41:53;5.07;;;2.55;;
20629;SDS011;17386;43.846;25.950;2022-09-24T02:44:18;5.75;;;2.80;;
20629;SDS011;17386;43.846;25.950;2022-09-24T02:46:44;4.85;;;2.58;;
20629;SDS011;17386;43.846;25.950;2022-09-24T02:49:11;5.68;;;2.50;;
20629;SDS011;17386;43.846;25.950;2022-09-24T02:51:38;6.40;;;2.70;;
20629;SDS011;17386;43.846;25.950;2022-09-24T02:54:04;5.30;;;2.53;;
20629;SDS011;17386;43.846;25.950;2022-09-24T02:56:30;6.65;;;3.17;;
20629;SDS011;17386;43.846;25.950;2022-09-24T02:58:56;5.30;;;2.88;;
20629;SDS011;17386;43.846;25.950;2022-09-24T03:01:21;4.10;;;2.40;;
20629;SDS011;17386;43.846;25.950;2022-09-24T03:03:48;6.43;;;2.95;;
20629;SDS011;17386;43.846;25.950;2022-09-24T03:06:14;4.63;;;2.40;;
20629;SDS011;17386;43.846;25.950;2022-09-24T03:08:40;5.05;;;2.90;;
20629;SDS011;17386;43.846;25.950;2022-09-24T03:11:07;4.45;;;2.80;;
20629;SDS011;17386;43.846;25.950;2022-09-24T03:15:59;5.55;;;2.80;;
20629;SDS011;17386;43.846;25.950;2022-09-24T03:18:25;5.20;;;2.70;;
20629;SDS011;17386;43.846;25.950;2022-09-24T03:21:00;5.07;;;2.53;;
20629;SDS011;17386;43.846;25.950;2022-09-24T03:23:30;7.22;;;3.00;;
20629;SDS011;17386;43.846;25.950;2022-09-24T03:25:56;6.03;;;2.70;;
20629;SDS011;17386;43.846;25.950;2022-09-24T03:28:22;6.25;;;2.78;;
20629;SDS011;17386;43.846;25.950;2022-09-24T03:30:47;5.47;;;2.78;;
20629;SDS011;17386;43.846;25.950;2022-09-24T03:33:32;5.25;;;3.15;;
20629;SDS011;17386;43.846;25.950;2022-09-24T03:36:10;5.95;;;2.80;;
20629;SDS011;17386;43.846;25.950;2022-09-24T03:38:36;6.82;;;3.15;;
20629;SDS011;17386;43.846;25.950;2022-09-24T03:41:03;6.40;;;2.97;;
20629;SDS011;17386;43.846;25.950;2022-09-24T03:43:30;7.22;;;3.15;;
20629;SDS011;17386;43.846;25.950;2022-09-24T03:45:55;5.63;;;2.88;;
20629;SDS011;17386;43.846;25.950;2022-09-24T03:48:22;7.45;;;3.50;;
20629;SDS011;17386;43.846;25.950;2022-09-24T03:50:48;6.63;;;3.33;;
20629;SDS011;17386;43.846;25.950;2022-09-24T03:53:14;6.32;;;3.35;;
20629;SDS011;17386;43.846;25.950;2022-09-24T03:55:43;6.32;;;3.40;;
20629;SDS011;17386;43.846;25.950;2022-09-24T03:58:10;5.10;;;2.90;;
20629;SDS011;17386;43.846;25.950;2022-09-24T04:00:36;6.22;;;3.30;;
20629;SDS011;17386;43.846;25.950;2022-09-24T04:03:03;6.05;;;3.25;;
20629;SDS011;17386;43.846;25.950;2022-09-24T04:05:28;6.18;;;3.40;;
20629;SDS011;17386;43.846;25.950;2022-09-24T04:07:54;6.97;;;3.10;;
20629;SDS011;17386;43.846;25.950;2022-09-24T04:10:20;6.00;;;3.45;;
20629;SDS011;17386;43.846;25.950;2022-09-24T04:12:46;6.63;;;3.33;;
20629;SDS011;17386;43.846;25.950;2022-09-24T04:15:12;8.10;;;4.05;;
20629;SDS011;17386;43.846;25.950;2022-09-24T04:17:39;7.28;;;3.65;;
20629;SDS011;17386;43.846;25.950;2022-09-24T04:20:05;5.32;;;2.72;;
20629;SDS011;17386;43.846;25.950;2022-09-24T04:22:31;6.35;;;3.58;;
20629;SDS011;17386;43.846;25.950;2022-09-24T04:24:57;7.05;;;3.38;;
20629;SDS011;17386;43.846;25.950;2022-09-24T04:27:22;5.82;;;3.15;;
20629;SDS011;17386;43.846;25.950;2022-09-24T04:29:48;9.10;;;4.13;;
20629;SDS011;17386;43.846;25.950;2022-09-24T04:32:13;6.72;;;3.45;;
20629;SDS011;17386;43.846;25.950;2022-09-24T04:34:39;6.38;;;3.08;;
20629;SDS011;17386;43.846;25.950;2022-09-24T04:37:04;7.07;;;3.15;;
20629;SDS011;17386;43.846;25.950;2022-09-24T04:39:30;7.90;;;3.25;;
20629;SDS011;17386;43.846;25.950;2022-09-24T04:41:56;6.55;;;3.00;;
20629;SDS011;17386;43.846;25.950;2022-09-24T04:44:21;5.47;;;3.50;;
20629;SDS011;17386;43.846;25.950;2022-09-24T04:46:47;6.35;;;3.15;;
20629;SDS011;17386;43.846;25.950;2022-09-24T04:49:13;7.35;;;3.35;;
20629;SDS011;17386;43.846;25.950;2022-09-24T04:51:39;5.72;;;3.42;;
20629;SDS011;17386;43.846;25.950;2022-09-24T04:54:04;6.18;;;3.00;;
20629;SDS011;17386;43.846;25.950;2022-09-24T04:56:30;8.73;;;4.35;;
20629;SDS011;17386;43.846;25.950;2022-09-24T04:58:56;6.70;;;3.63;;
20629;SDS011;17386;43.846;25.950;2022-09-24T05:01:22;6.80;;;3.45;;
20629;SDS011;17386;43.846;25.950;2022-09-24T05:03:48;7.22;;;3.65;;
20629;SDS011;17386;43.846;25.950;2022-09-24T05:06:14;6.22;;;3.38;;
20629;SDS011;17386;43.846;25.950;2022-09-24T05:08:39;7.00;;;3.40;;
20629;SDS011;17386;43.846;25.950;2022-09-24T05:11:05;6.05;;;3.63;;
20629;SDS011;17386;43.846;25.950;2022-09-24T05:13:30;5.75;;;3.30;;
20629;SDS011;17386;43.846;25.950;2022-09-24T05:15:56;6.13;;;3.97;;
20629;SDS011;17386;43.846;25.950;2022-09-24T05:18:21;6.97;;;4.03;;
20629;SDS011;17386;43.846;25.950;2022-09-24T05:20:46;6.20;;;2.78;;
20629;SDS011;17386;43.846;25.950;2022-09-24T05:23:12;6.22;;;3.25;;
20629;SDS011;17386;43.846;25.950;2022-09-24T05:25:37;7.10;;;3.10;;
20629;SDS011;17386;43.846;25.950;2022-09-24T05:28:23;6.45;;;3.20;;
20629;SDS011;17386;43.846;25.950;2022-09-24T05:30:48;7.25;;;3.38;;
20629;SDS011;17386;43.846;25.950;2022-09-24T05:33:14;5.88;;;3.47;;
20629;SDS011;17386;43.846;25.950;2022-09-24T05:35:39;6.05;;;3.38;;
20629;SDS011;17386;43.846;25.950;2022-09-24T05:38:04;5.72;;;3.20;;
20629;SDS011;17386;43.846;25.950;2022-09-24T05:40:30;7.03;;;4.47;;
20629;SDS011;17386;43.846;25.950;2022-09-24T05:43:14;5.82;;;3.95;;
20629;SDS011;17386;43.846;25.950;2022-09-24T05:45:43;7.45;;;3.80;;
20629;SDS011;17386;43.846;25.950;2022-09-24T05:48:08;7.00;;;3.15;;
20629;SDS011;17386;43.846;25.950;2022-09-24T05:50:34;7.68;;;4.47;;
20629;SDS011;17386;43.846;25.950;2022-09-24T05:53:00;6.40;;;3.20;;
20629;SDS011;17386;43.846;25.950;2022-09-24T05:55:26;7.32;;;3.40;;
20629;SDS011;17386;43.846;25.950;2022-09-24T05:57:51;7.28;;;3.60;;
20629;SDS011;17386;43.846;25.950;2022-09-24T06:00:17;7.05;;;3.80;;
20629;SDS011;17386;43.846;25.950;2022-09-24T06:02:42;9.40;;;3.88;;
20629;SDS011;17386;43.846;25.950;2022-09-24T06:05:08;7.88;;;4.03;;
20629;SDS011;17386;43.846;25.950;2022-09-24T06:07:34;7.57;;;3.40;;
20629;SDS011;17386;43.846;25.950;2022-09-24T06:09:59;7.43;;;3.10;;
20629;SDS011;17386;43.846;25.950;2022-09-24T06:12:25;7.22;;;3.10;;
20629;SDS011;17386;43.846;25.950;2022-09-24T06:14:51;8.30;;;4.40;;
20629;SDS011;17386;43.846;25.950;2022-09-24T06:17:17;6.20;;;3.47;;
20629;SDS011;17386;43.846;25.950;2022-09-24T06:19:44;7.72;;;3.58;;
20629;SDS011;17386;43.846;25.950;2022-09-24T06:22:11;7.50;;;3.25;;
20629;SDS011;17386;43.846;25.950;2022-09-24T06:24:37;7.95;;;3.95;;
20629;SDS011;17386;43.846;25.950;2022-09-24T06:27:02;6.80;;;3.25;;
20629;SDS011;17386;43.846;25.950;2022-09-24T06:29:28;7.95;;;3.67;;
20629;SDS011;17386;43.846;25.950;2022-09-24T06:31:53;6.82;;;3.35;;
20629;SDS011;17386;43.846;25.950;2022-09-24T06:34:18;5.72;;;3.08;;
20629;SDS011;17386;43.846;25.950;2022-09-24T06:36:44;6.88;;;3.95;;
20629;SDS011;17386;43.846;25.950;2022-09-24T06:39:09;6.75;;;4.00;;
20629;SDS011;17386;43.846;25.950;2022-09-24T06:41:35;8.15;;;3.92;;
20629;SDS011;17386;43.846;25.950;2022-09-24T06:44:00;6.70;;;3.63;;
20629;SDS011;17386;43.846;25.950;2022-09-24T06:46:26;7.95;;;4.30;;
20629;SDS011;17386;43.846;25.950;2022-09-24T06:48:51;7.22;;;3.63;;
20629;SDS011;17386;43.846;25.950;2022-09-24T06:51:19;8.20;;;3.95;;
20629;SDS011;17386;43.846;25.950;2022-09-24T06:53:45;7.75;;;3.83;;
20629;SDS011;17386;43.846;25.950;2022-09-24T06:56:10;7.15;;;3.53;;
20629;SDS011;17386;43.846;25.950;2022-09-24T06:58:35;9.00;;;4.10;;
20629;SDS011;17386;43.846;25.950;2022-09-24T07:01:01;7.70;;;4.07;;
20629;SDS011;17386;43.846;25.950;2022-09-24T07:03:31;6.55;;;3.60;;
20629;SDS011;17386;43.846;25.950;2022-09-24T07:06:04;6.57;;;3.70;;
20629;SDS011;17386;43.846;25.950;2022-09-24T07:08:30;8.52;;;4.65;;
20629;SDS011;17386;43.846;25.950;2022-09-24T07:10:56;7.43;;;4.65;;
20629;SDS011;17386;43.846;25.950;2022-09-24T07:13:22;8.85;;;4.68;;
20629;SDS011;17386;43.846;25.950;2022-09-24T07:15:48;6.45;;;3.42;;
20629;SDS011;17386;43.846;25.950;2022-09-24T07:18:14;6.28;;;3.60;;
20629;SDS011;17386;43.846;25.950;2022-09-24T07:20:40;6.90;;;3.95;;
20629;SDS011;17386;43.846;25.950;2022-09-24T07:23:07;7.57;;;4.22;;
20629;SDS011;17386;43.846;25.950;2022-09-24T07:25:34;6.97;;;4.13;;
20629;SDS011;17386;43.846;25.950;2022-09-24T07:28:01;6.18;;;3.72;;
20629;SDS011;17386;43.846;25.950;2022-09-24T07:30:35;8.27;;;4.13;;
20629;SDS011;17386;43.846;25.950;2022-09-24T07:33:01;9.30;;;4.10;;
20629;SDS011;17386;43.846;25.950;2022-09-24T07:35:27;6.93;;;4.00;;
20629;SDS011;17386;43.846;25.950;2022-09-24T07:38:01;7.32;;;3.80;;
20629;SDS011;17386;43.846;25.950;2022-09-24T07:40:28;8.60;;;4.20;;
20629;SDS011;17386;43.846;25.950;2022-09-24T07:42:55;6.15;;;3.60;;
20629;SDS011;17386;43.846;25.950;2022-09-24T07:45:21;7.85;;;3.80;;
20629;SDS011;17386;43.846;25.950;2022-09-24T07:50:24;7.13;;;3.65;;
20629;SDS011;17386;43.846;25.950;2022-09-24T07:52:50;8.60;;;3.72;;
20629;SDS011;17386;43.846;25.950;2022-09-24T07:55:15;8.60;;;3.53;;
20629;SDS011;17386;43.846;25.950;2022-09-24T07:57:45;6.75;;;3.80;;
20629;SDS011;17386;43.846;25.950;2022-09-24T08:00:12;10.95;;;3.80;;
20629;SDS011;17386;43.846;25.950;2022-09-24T08:02:38;6.45;;;3.33;;
20629;SDS011;17386;43.846;25.950;2022-09-24T08:05:04;7.22;;;3.58;;
20629;SDS011;17386;43.846;25.950;2022-09-24T08:07:29;7.70;;;3.70;;
20629;SDS011;17386;43.846;25.950;2022-09-24T08:09:55;7.40;;;4.13;;
20629;SDS011;17386;43.846;25.950;2022-09-24T08:12:20;8.45;;;4.15;;
20629;SDS011;17386;43.846;25.950;2022-09-24T08:14:50;7.07;;;3.85;;
20629;SDS011;17386;43.846;25.950;2022-09-24T08:17:15;6.22;;;3.40;;
20629;SDS011;17386;43.846;25.950;2022-09-24T08:19:41;5.93;;;3.58;;
20629;SDS011;17386;43.846;25.950;2022-09-24T08:22:10;7.05;;;3.13;;
20629;SDS011;17386;43.846;25.950;2022-09-24T08:24:36;5.18;;;3.08;;
20629;SDS011;17386;43.846;25.950;2022-09-24T08:27:01;6.75;;;3.35;;
20629;SDS011;17386;43.846;25.950;2022-09-24T08:29:27;8.15;;;3.45;;
20629;SDS011;17386;43.846;25.950;2022-09-24T08:31:52;5.05;;;3.08;;
20629;SDS011;17386;43.846;25.950;2022-09-24T08:34:18;6.38;;;3.50;;
20629;SDS011;17386;43.846;25.950;2022-09-24T08:36:43;5.85;;;3.45;;
20629;SDS011;17386;43.846;25.950;2022-09-24T08:39:08;7.35;;;3.20;;
20629;SDS011;17386;43.846;25.950;2022-09-24T08:41:49;4.90;;;2.95;;
20629;SDS011;17386;43.846;25.950;2022-09-24T08:47:13;7.07;;;3.40;;
20629;SDS011;17386;43.846;25.950;2022-09-24T08:50:00;4.40;;;2.65;;
20629;SDS011;17386;43.846;25.950;2022-09-24T08:55:13;5.43;;;3.08;;
20629;SDS011;17386;43.846;25.950;2022-09-24T08:57:45;5.47;;;2.50;;
20629;SDS011;17386;43.846;25.950;2022-09-24T09:00:21;5.32;;;3.03;;
20629;SDS011;17386;43.846;25.950;2022-09-24T09:05:27;5.43;;;2.63;;
20629;SDS011;17386;43.846;25.950;2022-09-24T09:08:01;6.20;;;2.97;;
20629;SDS011;17386;43.846;25.950;2022-09-24T09:10:35;4.82;;;2.63;;
20629;SDS011;17386;43.846;25.950;2022-09-24T09:13:10;5.40;;;2.20;;
20629;SDS011;17386;43.846;25.950;2022-09-24T09:15:52;4.85;;;2.58;;
20629;SDS011;17386;43.846;25.950;2022-09-24T09:18:27;4.28;;;2.63;;
20629;SDS011;17386;43.846;25.950;2022-09-24T09:21:02;4.22;;;2.10;;
20629;SDS011;17386;43.846;25.950;2022-09-24T09:23:36;3.95;;;2.40;;
20629;SDS011;17386;43.846;25.950;2022-09-24T09:26:09;5.22;;;2.35;;
20629;SDS011;17386;43.846;25.950;2022-09-24T09:28:36;4.80;;;2.10;;
20629;SDS011;17386;43.846;25.950;2022-09-24T09:33:55;3.90;;;1.95;;
20629;SDS011;17386;43.846;25.950;2022-09-24T09:39:03;3.28;;;1.70;;
20629;SDS011;17386;43.846;25.950;2022-09-24T09:42:03;2.58;;;1.60;;
20629;SDS011;17386;43.846;25.950;2022-09-24T09:44:40;2.83;;;1.80;;
20629;SDS011;17386;43.846;25.950;2022-09-24T09:49:51;5.78;;;1.90;;
20629;SDS011;17386;43.846;25.950;2022-09-24T09:52:22;4.38;;;2.03;;
20629;SDS011;17386;43.846;25.950;2022-09-24T09:54:51;4.22;;;1.85;;
20629;SDS011;17386;43.846;25.950;2022-09-24T09:57:20;5.05;;;1.90;;
20629;SDS011;17386;43.846;25.950;2022-09-24T09:59:48;2.83;;;1.63;;
20629;SDS011;17386;43.846;25.950;2022-09-24T10:02:26;4.55;;;3.38;;
20629;SDS011;17386;43.846;25.950;2022-09-24T10:04:56;2.38;;;1.73;;
20629;SDS011;17386;43.846;25.950;2022-09-24T10:07:23;3.58;;;1.70;;
20629;SDS011;17386;43.846;25.950;2022-09-24T10:10:02;2.25;;;1.40;;
20629;SDS011;17386;43.846;25.950;2022-09-24T10:12:41;3.40;;;1.70;;
20629;SDS011;17386;43.846;25.950;2022-09-24T10:15:17;2.47;;;1.50;;
20629;SDS011;17386;43.846;25.950;2022-09-24T10:17:44;2.40;;;1.50;;
20629;SDS011;17386;43.846;25.950;2022-09-24T10:20:23;2.15;;;1.52;;
20629;SDS011;17386;43.846;25.950;2022-09-24T10:23:05;2.50;;;1.48;;
20629;SDS011;17386;43.846;25.950;2022-09-24T10:25:32;2.45;;;1.60;;
20629;SDS011;17386;43.846;25.950;2022-09-24T10:28:02;3.55;;;1.38;;
20629;SDS011;17386;43.846;25.950;2022-09-24T10:30:54;3.35;;;1.60;;
20629;SDS011;17386;43.846;25.950;2022-09-24T10:33:25;2.30;;;1.50;;
20629;SDS011;17386;43.846;25.950;2022-09-24T10:36:12;2.92;;;1.30;;
20629;SDS011;17386;43.846;25.950;2022-09-24T10:38:40;2.00;;;1.40;;
20629;SDS011;17386;43.846;25.950;2022-09-24T10:41:14;4.55;;;1.60;;
20629;SDS011;17386;43.846;25.950;2022-09-24T10:43:52;4.55;;;1.40;;
20629;SDS011;17386;43.846;25.950;2022-09-24T10:51:46;2.13;;;1.30;;
20629;SDS011;17386;43.846;25.950;2022-09-24T10:56:54;2.58;;;1.50;;
20629;SDS011;17386;43.846;25.950;2022-09-24T10:59:43;3.30;;;1.50;;
20629;SDS011;17386;43.846;25.950;2022-09-24T11:05:22;3.08;;;1.70;;
20629;SDS011;17386;43.846;25.950;2022-09-24T11:15:42;2.70;;;1.52;;
20629;SDS011;17386;43.846;25.950;2022-09-24T11:24:06;1.85;;;1.38;;
20629;SDS011;17386;43.846;25.950;2022-09-24T11:38:04;4.18;;;1.45;;
20629;SDS011;17386;43.846;25.950;2022-09-24T11:48:46;3.20;;;1.70;;
20629;SDS011;17386;43.846;25.950;2022-09-24T11:54:00;3.00;;;1.42;;
20629;SDS011;17386;43.846;25.950;2022-09-24T11:56:34;2.25;;;1.40;;
20629;SDS011;17386;43.846;25.950;2022-09-24T12:01:52;2.28;;;1.33;;
20629;SDS011;17386;43.846;25.950;2022-09-24T12:04:27;3.53;;;1.58;;
20629;SDS011;17386;43.846;25.950;2022-09-24T12:10:00;3.85;;;1.70;;
20629;SDS011;17386;43.846;25.950;2022-09-24T12:12:41;2.22;;;1.50;;
20629;SDS011;17386;43.846;25.950;2022-09-24T12:15:16;4.13;;;1.23;;
20629;SDS011;17386;43.846;25.950;2022-09-24T12:17:50;10.80;;;1.60;;
20629;SDS011;17386;43.846;25.950;2022-09-24T12:20:27;1.58;;;1.20;;
20629;SDS011;17386;43.846;25.950;2022-09-24T12:22:58;2.28;;;1.33;;
20629;SDS011;17386;43.846;25.950;2022-09-24T12:25:28;1.65;;;1.20;;
20629;SDS011;17386;43.846;25.950;2022-09-24T12:28:03;1.85;;;1.30;;
20629;SDS011;17386;43.846;25.950;2022-09-24T12:30:33;2.63;;;1.33;;
20629;SDS011;17386;43.846;25.950;2022-09-24T12:33:26;2.35;;;1.27;;
20629;SDS011;17386;43.846;25.950;2022-09-24T12:39:21;2.47;;;1.60;;
20629;SDS011;17386;43.846;25.950;2022-09-24T12:41:57;2.05;;;1.50;;
20629;SDS011;17386;43.846;25.950;2022-09-24T12:44:30;4.25;;;2.10;;
20629;SDS011;17386;43.846;25.950;2022-09-24T12:47:02;15.60;;;9.00;;
20629;SDS011;17386;43.846;25.950;2022-09-24T12:49:32;4.30;;;2.10;;
20629;SDS011;17386;43.846;25.950;2022-09-24T12:52:02;4.32;;;1.90;;
20629;SDS011;17386;43.846;25.950;2022-09-24T12:54:39;4.25;;;2.53;;
20629;SDS011;17386;43.846;25.950;2022-09-24T12:59:47;2.40;;;1.50;;
20629;SDS011;17386;43.846;25.950;2022-09-24T13:02:27;4.57;;;2.15;;
20629;SDS011;17386;43.846;25.950;2022-09-24T13:07:32;3.83;;;2.20;;
20629;SDS011;17386;43.846;25.950;2022-09-24T13:10:10;5.03;;;2.53;;
20629;SDS011;17386;43.846;25.950;2022-09-24T13:12:42;3.33;;;2.13;;
20629;SDS011;17386;43.846;25.950;2022-09-24T13:18:25;4.60;;;2.17;;
20629;SDS011;17386;43.846;25.950;2022-09-24T13:20:58;3.85;;;2.22;;
20629;SDS011;17386;43.846;25.950;2022-09-24T13:26:10;3.35;;;1.80;;
20629;SDS011;17386;43.846;25.950;2022-09-24T13:33:52;3.97;;;1.77;;
20629;SDS011;17386;43.846;25.950;2022-09-24T13:36:34;2.30;;;1.73;;
20629;SDS011;17386;43.846;25.950;2022-09-24T13:39:46;5.53;;;2.88;;
20629;SDS011;17386;43.846;25.950;2022-09-24T13:41:59;3.90;;;1.70;;
20629;SDS011;17386;43.846;25.950;2022-09-24T13:47:21;2.47;;;1.50;;
20629;SDS011;17386;43.846;25.950;2022-09-24T13:50:06;3.63;;;1.70;;
20629;SDS011;17386;43.846;25.950;2022-09-24T13:55:21;3.25;;;2.13;;
20629;SDS011;17386;43.846;25.950;2022-09-24T13:57:51;3.88;;;1.83;;
20629;SDS011;17386;43.846;25.950;2022-09-24T14:00:18;2.30;;;1.63;;
20629;SDS011;17386;43.846;25.950;2022-09-24T14:02:56;3.35;;;1.73;;
20629;SDS011;17386;43.846;25.950;2022-09-24T14:05:26;4.57;;;1.80;;
20629;SDS011;17386;43.846;25.950;2022-09-24T14:08:15;4.07;;;2.00;;
20629;SDS011;17386;43.846;25.950;2022-09-24T14:10:41;3.08;;;2.15;;
20629;SDS011;17386;43.846;25.950;2022-09-24T14:15:34;3.45;;;1.70;;
20629;SDS011;17386;43.846;25.950;2022-09-24T14:18:00;4.10;;;1.90;;
20629;SDS011;17386;43.846;25.950;2022-09-24T14:20:27;4.20;;;2.38;;
20629;SDS011;17386;43.846;25.950;2022-09-24T14:22:56;2.92;;;1.90;;
20629;SDS011;17386;43.846;25.950;2022-09-24T14:25:27;4.43;;;2.17;;
20629;SDS011;17386;43.846;25.950;2022-09-24T14:27:54;2.35;;;1.65;;
20629;SDS011;17386;43.846;25.950;2022-09-24T14:30:24;5.55;;;2.00;;
20629;SDS011;17386;43.846;25.950;2022-09-24T14:32:56;4.75;;;1.95;;
20629;SDS011;17386;43.846;25.950;2022-09-24T14:35:36;2.13;;;1.70;;
20629;SDS011;17386;43.846;25.950;2022-09-24T14:38:06;2.90;;;1.73;;
20629;SDS011;17386;43.846;25.950;2022-09-24T14:40:41;3.05;;;1.60;;
20629;SDS011;17386;43.846;25.950;2022-09-24T14:45:42;2.75;;;1.80;;
20629;SDS011;17386;43.846;25.950;2022-09-24T14:50:53;4.22;;;2.00;;
20629;SDS011;17386;43.846;25.950;2022-09-24T14:55:48;5.28;;;2.08;;
20629;SDS011;17386;43.846;25.950;2022-09-24T14:58:21;6.03;;;3.10;;
20629;SDS011;17386;43.846;25.950;2022-09-24T15:00:51;3.35;;;2.22;;
20629;SDS011;17386;43.846;25.950;2022-09-24T15:03:25;14.32;;;4.22;;
20629;SDS011;17386;43.846;25.950;2022-09-24T15:11:15;3.78;;;2.28;;
20629;SDS011;17386;43.846;25.950;2022-09-24T15:13:45;4.68;;;2.50;;
20629;SDS011;17386;43.846;25.950;2022-09-24T15:21:54;3.63;;;2.05;;
20629;SDS011;17386;43.846;25.950;2022-09-24T15:24:20;3.80;;;2.17;;
20629;SDS011;17386;43.846;25.950;2022-09-24T15:26:47;5.07;;;2.60;;
20629;SDS011;17386;43.846;25.950;2022-09-24T15:29:24;4.65;;;2.03;;
20629;SDS011;17386;43.846;25.950;2022-09-24T15:31:51;4.00;;;2.70;;
20629;SDS011;17386;43.846;25.950;2022-09-24T15:36:44;4.38;;;2.70;;
20629;SDS011;17386;43.846;25.950;2022-09-24T15:39:10;5.15;;;3.42;;
20629;SDS011;17386;43.846;25.950;2022-09-24T15:41:36;4.60;;;2.88;;
20629;SDS011;17386;43.846;25.950;2022-09-24T15:44:01;6.13;;;3.08;;
20629;SDS011;17386;43.846;25.950;2022-09-24T15:46:27;5.00;;;2.90;;
20629;SDS011;17386;43.846;25.950;2022-09-24T15:48:52;4.32;;;2.78;;
20629;SDS011;17386;43.846;25.950;2022-09-24T15:51:18;6.38;;;2.85;;
20629;SDS011;17386;43.846;25.950;2022-09-24T15:53:46;4.57;;;2.80;;
20629;SDS011;17386;43.846;25.950;2022-09-24T15:56:14;6.03;;;3.00;;
20629;SDS011;17386;43.846;25.950;2022-09-24T15:58:40;4.70;;;2.63;;
20629;SDS011;17386;43.846;25.950;2022-09-24T16:01:07;5.05;;;2.88;;
20629;SDS011;17386;43.846;25.950;2022-09-24T16:03:37;5.97;;;3.15;;
20629;SDS011;17386;43.846;25.950;2022-09-24T16:06:04;5.45;;;2.72;;
20629;SDS011;17386;43.846;25.950;2022-09-24T16:08:29;6.18;;;2.92;;
20629;SDS011;17386;43.846;25.950;2022-09-24T16:10:55;8.32;;;3.30;;
20629;SDS011;17386;43.846;25.950;2022-09-24T16:13:20;7.03;;;2.97;;
20629;SDS011;17386;43.846;25.950;2022-09-24T16:15:50;9.73;;;3.85;;
20629;SDS011;17386;43.846;25.950;2022-09-24T16:18:15;6.38;;;3.60;;
20629;SDS011;17386;43.846;25.950;2022-09-24T16:20:46;9.70;;;3.47;;
20629;SDS011;17386;43.846;25.950;2022-09-24T16:23:13;8.35;;;3.75;;
20629;SDS011;17386;43.846;25.950;2022-09-24T16:25:41;7.90;;;4.40;;
20629;SDS011;17386;43.846;25.950;2022-09-24T16:28:17;12.40;;;7.75;;
20629;SDS011;17386;43.846;25.950;2022-09-24T16:30:42;12.20;;;5.10;;
20629;SDS011;17386;43.846;25.950;2022-09-24T16:33:08;12.70;;;5.13;;
20629;SDS011;17386;43.846;25.950;2022-09-24T16:35:33;9.68;;;4.93;;
20629;SDS011;17386;43.846;25.950;2022-09-24T16:37:59;14.93;;;5.00;;
20629;SDS011;17386;43.846;25.950;2022-09-24T16:40:24;12.80;;;4.80;;
20629;SDS011;17386;43.846;25.950;2022-09-24T16:42:49;9.80;;;4.80;;
20629;SDS011;17386;43.846;25.950;2022-09-24T16:45:15;11.13;;;4.75;;
20629;SDS011;17386;43.846;25.950;2022-09-24T16:47:42;13.13;;;5.05;;
20629;SDS011;17386;43.846;25.950;2022-09-24T16:50:08;11.35;;;4.93;;
20629;SDS011;17386;43.846;25.950;2022-09-24T16:52:36;15.00;;;4.80;;
20629;SDS011;17386;43.846;25.950;2022-09-24T16:55:02;8.80;;;5.10;;
20629;SDS011;17386;43.846;25.950;2022-09-24T16:57:27;10.75;;;5.38;;
20629;SDS011;17386;43.846;25.950;2022-09-24T16:59:53;11.45;;;5.38;;
20629;SDS011;17386;43.846;25.950;2022-09-24T17:02:18;11.23;;;5.30;;
20629;SDS011;17386;43.846;25.950;2022-09-24T17:04:44;13.30;;;5.57;;
20629;SDS011;17386;43.846;25.950;2022-09-24T17:07:09;9.93;;;5.28;;
20629;SDS011;17386;43.846;25.950;2022-09-24T17:09:36;12.13;;;5.70;;
20629;SDS011;17386;43.846;25.950;2022-09-24T17:12:20;16.75;;;5.90;;
20629;SDS011;17386;43.846;25.950;2022-09-24T17:14:45;16.15;;;6.50;;
20629;SDS011;17386;43.846;25.950;2022-09-24T17:17:11;11.80;;;5.90;;
20629;SDS011;17386;43.846;25.950;2022-09-24T17:19:36;15.10;;;5.85;;
20629;SDS011;17386;43.846;25.950;2022-09-24T17:22:02;12.45;;;6.43;;